Time;durP1;ratioP1;P1;durP2;ratioP2;P2;SDS_P1;SDS_P2;PMS_P1;PMS_P2;Temp;Humidity;BMP_temperature;BMP_pressure;BME280_temperature;BME280_humidity;BME280_pressure;Samples;Min_cycle;Max_cycle;Signal;HPM_P1;HPM_P2
2023/07/16 00:01:57;;;;;;;2.90;1.57;;;;;;;26.71;57.00;97294.13;5012025;28;20204;-69
2023/07/16 00:04:23;;;;;;;2.23;1.67;;;;;;;26.64;57.50;97293.50;5007801;28;20649;-69
2023/07/16 00:06:49;;;;;;;2.70;1.83;;;;;;;26.64;57.73;97293.50;5007932;28;20243;-69
2023/07/16 00:09:14;;;;;;;2.80;1.53;;;;;;;26.67;57.44;97282.25;5008149;28;20287;-69
2023/07/16 00:11:40;;;;;;;2.70;1.40;;;;;;;26.66;57.53;97299.44;5011042;28;20210;-69
2023/07/16 00:14:05;;;;;;;3.70;2.30;;;;;;;26.61;56.88;97299.38;5015966;28;20241;-70
2023/07/16 00:16:31;;;;;;;1.90;1.40;;;;;;;26.63;57.75;97300.75;5011252;28;20809;-69
2023/07/16 00:18:56;;;;;;;4.10;3.37;;;;;;;26.62;57.15;97277.63;5011805;28;20726;-69
2023/07/16 00:21:22;;;;;;;10.13;9.20;;;;;;;26.64;56.90;97266.63;5012314;28;20312;-68
2023/07/16 00:23:47;;;;;;;9.53;8.57;;;;;;;26.66;56.89;97264.50;5011677;28;20188;-69
2023/07/16 00:26:13;;;;;;;3.77;3.43;;;;;;;26.60;56.55;97276.25;5013022;28;20833;-69
2023/07/16 00:28:39;;;;;;;4.70;4.00;;;;;;;26.51;56.98;97278.59;5018617;28;20597;-70
2023/07/16 00:31:04;;;;;;;7.57;6.87;;;;;;;26.45;57.18;97285.81;5027385;28;20435;-70
2023/07/16 00:33:30;;;;;;;3.00;2.50;;;;;;;26.37;56.91;97291.63;5020368;28;20196;-68
2023/07/16 00:35:55;;;;;;;5.27;4.40;;;;;;;26.37;57.96;97299.66;5025223;28;20380;-70
2023/07/16 00:38:21;;;;;;;6.17;5.40;;;;;;;26.42;58.10;97307.78;5021766;28;20181;-71
2023/07/16 00:40:46;;;;;;;24.17;20.53;;;;;;;26.44;58.11;97307.53;5018540;28;20224;-70
2023/07/16 00:43:12;;;;;;;15.50;12.80;;;;;;;26.42;58.39;97318.53;5008915;28;20216;-69
2023/07/16 00:45:39;;;;;;;12.70;11.40;;;;;;;26.41;58.38;97313.41;5011234;28;20274;-69
2023/07/16 00:48:06;;;;;;;15.90;13.20;;;;;;;26.32;58.37;97305.81;5011022;28;20657;-69
2023/07/16 00:50:34;;;;;;;22.43;19.50;;;;;;;26.32;58.36;97307.69;5008377;28;20442;-69
2023/07/16 00:53:02;;;;;;;15.87;11.30;;;;;;;26.30;59.10;97309.81;5011853;28;20419;-69
2023/07/16 00:55:29;;;;;;;10.13;7.37;;;;;;;26.28;58.64;97301.19;5010830;28;20788;-68
2023/07/16 00:57:57;;;;;;;8.63;7.80;;;;;;;26.24;59.17;97308.13;5011140;28;20431;-70
2023/07/16 01:00:22;;;;;;;6.10;5.57;;;;;;;26.22;59.04;97303.81;5009899;28;20427;-69
2023/07/16 01:02:48;;;;;;;10.50;6.70;;;;;;;26.23;59.16;97318.06;5009933;28;20880;-70
2023/07/16 01:05:13;;;;;;;5.20;4.57;;;;;;;26.28;59.43;97328.06;5011009;28;20651;-69
2023/07/16 01:07:46;;;;;;;7.40;4.50;;;;;;;26.29;58.71;97335.84;5010172;28;20184;-70
2023/07/16 01:10:11;;;;;;;4.00;2.70;;;;;;;26.30;58.43;97332.09;5009772;28;20254;-69
2023/07/16 01:12:37;;;;;;;4.13;2.80;;;;;;;26.27;57.67;97347.91;5009552;28;20443;-70
2023/07/16 01:15:03;;;;;;;2.20;1.73;;;;;;;26.26;56.86;97351.66;5018650;28;20622;-69
2023/07/16 01:17:29;;;;;;;1.50;1.40;;;;;;;26.12;56.09;97354.72;5013836;28;20208;-69
2023/07/16 01:19:54;;;;;;;2.30;2.10;;;;;;;26.13;56.06;97359.03;5010530;28;20454;-70
2023/07/16 01:22:56;;;;;;;3.10;2.90;;;;;;;25.99;55.78;97349.69;5009963;28;20208;-69
2023/07/16 01:25:52;;;;;;;2.47;2.20;;;;;;;25.92;55.87;97353.38;5015584;28;20199;-70
2023/07/16 01:28:32;;;;;;;4.47;3.07;;;;;;;25.93;55.05;97346.13;5010308;28;20474;-70
2023/07/16 01:30:58;;;;;;;2.03;1.80;;;;;;;25.89;54.77;97364.59;5010201;28;20804;-69
2023/07/16 01:33:24;;;;;;;1.30;1.20;;;;;;;25.85;54.37;97359.97;4993416;28;20431;-69
2023/07/16 01:35:50;;;;;;;3.40;1.60;;;;;;;25.83;53.79;97365.59;5014798;28;20539;-69
2023/07/16 01:38:18;;;;;;;1.43;1.33;;;;;;;25.79;53.85;97363.63;5010390;28;20184;-69
2023/07/16 01:40:44;;;;;;;3.00;1.07;;;;;;;25.76;53.64;97371.16;5013420;28;20453;-69
2023/07/16 01:43:09;;;;;;;1.70;1.30;;;;;;;25.77;53.55;97362.00;5011190;28;20455;-69
2023/07/16 01:45:35;;;;;;;1.30;1.00;;;;;;;25.68;52.96;97365.38;5007546;28;20677;-68
2023/07/16 01:48:13;;;;;;;1.20;1.10;;;;;;;25.56;53.38;97355.56;5008438;28;20255;-69
2023/07/16 01:50:39;;;;;;;1.30;1.20;;;;;;;25.54;52.76;97346.94;5008307;28;20231;-68
2023/07/16 01:53:04;;;;;;;3.60;2.07;;;;;;;25.55;52.82;97331.63;5010462;28;20955;-68
2023/07/16 01:55:30;;;;;;;1.93;1.53;;;;;;;25.58;53.37;97342.69;5010053;28;20275;-69
2023/07/16 01:57:55;;;;;;;1.43;1.13;;;;;;;25.54;53.12;97346.94;5010083;28;20238;-69
2023/07/16 02:00:21;;;;;;;1.57;1.10;;;;;;;25.53;53.28;97353.34;5009628;28;20267;-68
2023/07/16 02:02:46;;;;;;;1.40;1.30;;;;;;;25.52;53.76;97358.97;5007894;28;20777;-69
2023/07/16 02:05:12;;;;;;;1.60;1.50;;;;;;;25.51;52.99;97363.50;5022059;28;20185;-68
2023/07/16 02:07:37;;;;;;;3.33;1.40;;;;;;;25.40;53.01;97365.19;5012752;28;20254;-69
2023/07/16 02:10:03;;;;;;;3.10;1.50;;;;;;;25.44;52.96;97350.28;5012525;28;20209;-68
2023/07/16 02:12:28;;;;;;;1.70;1.10;;;;;;;25.36;53.29;97347.16;5009878;28;20204;-69
2023/07/16 02:14:54;;;;;;;1.57;1.10;;;;;;;25.24;53.40;97353.41;5009344;28;20187;-69
2023/07/16 02:17:19;;;;;;;3.93;1.23;;;;;;;25.22;53.40;97368.13;5009735;28;20296;-68
2023/07/16 02:19:45;;;;;;;1.80;1.00;;;;;;;25.15;53.34;97355.69;5010037;28;20688;-69
2023/07/16 02:22:10;;;;;;;2.30;1.40;;;;;;;25.20;52.98;97375.59;5012352;28;20965;-68
2023/07/16 02:24:35;;;;;;;1.10;1.00;;;;;;;25.12;52.53;97382.16;5009714;28;20266;-69
2023/07/16 02:27:01;;;;;;;1.40;1.10;;;;;;;25.01;52.39;97391.91;5013645;28;20197;-68
2023/07/16 02:29:26;;;;;;;1.97;1.47;;;;;;;25.00;52.48;97390.28;5010727;28;20783;-68
2023/07/16 02:31:52;;;;;;;2.73;1.70;;;;;;;25.04;52.32;97379.91;5007677;28;20381;-69
2023/07/16 02:34:17;;;;;;;2.10;2.00;;;;;;;25.10;52.26;97376.22;5008558;28;20218;-69
2023/07/16 02:36:43;;;;;;;1.73;1.43;;;;;;;25.16;52.51;97377.97;5011857;28;20189;-68
2023/07/16 02:39:08;;;;;;;2.67;1.97;;;;;;;25.12;52.19;97380.31;5009723;28;20680;-69
2023/07/16 02:41:34;;;;;;;2.60;1.33;;;;;;;25.19;52.35;97376.66;5009532;28;20205;-68
2023/07/16 02:44:01;;;;;;;2.47;1.40;;;;;;;25.18;51.87;97386.56;5010124;28;20188;-68
2023/07/16 02:46:27;;;;;;;2.07;1.17;;;;;;;25.19;51.91;97398.94;5008959;28;20181;-68
2023/07/16 02:48:52;;;;;;;6.90;1.40;;;;;;;25.03;50.66;97397.03;5008538;28;20477;-67
2023/07/16 02:51:18;;;;;;;2.43;1.40;;;;;;;25.00;50.70;97395.66;5006283;28;20285;-68
2023/07/16 02:53:43;;;;;;;1.67;1.30;;;;;;;24.90;50.49;97396.28;5007592;28;20269;-67
2023/07/16 02:56:09;;;;;;;1.37;1.20;;;;;;;24.80;50.98;97393.41;5009077;28;20259;-68
2023/07/16 02:58:34;;;;;;;1.73;1.37;;;;;;;24.79;50.97;97384.53;5012482;28;20176;-68
2023/07/16 03:00:59;;;;;;;4.10;1.40;;;;;;;24.79;51.00;97403.31;5008547;28;20232;-68
2023/07/16 03:03:25;;;;;;;2.13;1.03;;;;;;;24.73;50.66;97423.03;5008509;28;20639;-67
2023/07/16 03:05:50;;;;;;;2.03;1.40;;;;;;;24.74;51.31;97415.78;5010154;28;20605;-68
2023/07/16 03:08:16;;;;;;;5.33;1.73;;;;;;;24.77;50.99;97396.56;5008916;28;20175;-68
2023/07/16 03:10:41;;;;;;;1.70;1.60;;;;;;;24.77;51.09;97392.00;5009220;28;20270;-67
2023/07/16 03:13:07;;;;;;;2.00;1.63;;;;;;;24.73;49.96;97395.41;4990785;28;20626;-67
2023/07/16 03:15:32;;;;;;;2.30;1.47;;;;;;;24.71;50.23;97414.41;5006562;28;20288;-69
2023/07/16 03:17:57;;;;;;;3.67;1.57;;;;;;;24.66;50.58;97417.78;5006695;28;20180;-69
2023/07/16 03:20:23;;;;;;;2.30;1.47;;;;;;;24.61;50.77;97420.34;5008463;28;20267;-69
2023/07/16 03:22:48;;;;;;;2.63;1.33;;;;;;;24.61;50.68;97431.06;5007061;28;20563;-68
2023/07/16 03:25:14;;;;;;;3.87;1.90;;;;;;;24.52;51.49;97437.84;5008584;28;20211;-69
2023/07/16 03:27:39;;;;;;;2.60;1.53;;;;;;;24.55;52.20;97432.03;5007193;28;20234;-69
2023/07/16 03:30:06;;;;;;;2.03;1.50;;;;;;;24.51;51.95;97430.88;5007656;28;20172;-69
2023/07/16 03:32:31;;;;;;;6.60;1.40;;;;;;;24.39;51.11;97434.38;5007651;28;20851;-69
2023/07/16 03:34:56;;;;;;;3.73;1.20;;;;;;;24.34;52.16;97447.66;5005775;28;20423;-69
2023/07/16 03:37:22;;;;;;;3.00;1.70;;;;;;;24.26;51.87;97456.06;5007856;28;20226;-69
2023/07/16 03:39:47;;;;;;;3.80;1.60;;;;;;;24.29;52.39;97460.94;5007396;28;20271;-68
2023/07/16 03:42:13;;;;;;;2.63;1.77;;;;;;;24.26;52.74;97464.09;5014149;28;20235;-68
2023/07/16 03:44:38;;;;;;;1.73;1.10;;;;;;;24.29;52.19;97442.22;5007760;28;20183;-70
2023/07/16 03:47:04;;;;;;;2.13;1.10;;;;;;;24.16;52.38;97471.91;5015532;28;20172;-70
2023/07/16 03:49:29;;;;;;;2.97;1.47;;;;;;;24.20;52.82;97481.06;5014493;28;20846;-69
2023/07/16 03:51:55;;;;;;;1.60;1.40;;;;;;;24.15;53.09;97486.34;5012333;28;20200;-69
2023/07/16 03:54:20;;;;;;;1.80;1.20;;;;;;;24.19;52.43;97509.72;5006892;28;20184;-69
2023/07/16 03:56:46;;;;;;;3.60;1.50;;;;;;;24.25;53.09;97505.28;4963543;28;20236;-69
2023/07/16 03:59:11;;;;;;;1.87;1.50;;;;;;;24.19;52.58;97508.94;4996255;28;20195;-69
2023/07/16 04:01:37;;;;;;;2.20;1.50;;;;;;;24.23;53.13;97515.41;4981107;28;20714;-69
2023/07/16 04:04:02;;;;;;;3.30;1.67;;;;;;;24.27;52.75;97516.59;5014719;28;20270;-70
2023/07/16 04:06:28;;;;;;;7.40;1.60;;;;;;;24.34;52.80;97517.28;5014158;28;20195;-70
2023/07/16 04:08:53;;;;;;;2.90;1.50;;;;;;;24.36;53.22;97504.47;5015533;28;20202;-69
2023/07/16 04:11:18;;;;;;;5.80;1.40;;;;;;;24.46;53.09;97497.69;5019548;28;20211;-70
2023/07/16 04:13:44;;;;;;;2.40;2.00;;;;;;;24.54;52.74;97489.31;5022142;28;20184;-70
2023/07/16 04:16:09;;;;;;;2.03;1.77;;;;;;;24.57;53.03;97491.53;5015131;28;20184;-70
2023/07/16 04:18:35;;;;;;;7.83;1.50;;;;;;;24.55;53.82;97485.59;5018688;28;20214;-69
2023/07/16 04:21:00;;;;;;;1.90;1.40;;;;;;;24.49;54.48;97482.00;5013038;28;20208;-70
2023/07/16 04:23:26;;;;;;;4.13;1.50;;;;;;;24.37;54.90;97479.31;5023501;28;20183;-69
2023/07/16 04:25:53;;;;;;;1.50;1.20;;;;;;;24.30;55.13;97491.22;5015035;28;20196;-69
2023/07/16 04:28:18;;;;;;;4.63;1.57;;;;;;;24.28;55.65;97502.16;5016054;28;20349;-69
2023/07/16 04:30:44;;;;;;;1.87;1.40;;;;;;;24.31;55.77;97508.91;5016412;28;20415;-69
2023/07/16 04:33:09;;;;;;;6.93;1.67;;;;;;;24.30;55.76;97526.84;5009441;28;20182;-69
2023/07/16 04:35:35;;;;;;;4.90;1.43;;;;;;;24.25;55.86;97532.06;5012610;28;20271;-69
2023/07/16 04:38:00;;;;;;;7.93;1.37;;;;;;;24.29;55.49;97530.56;5014295;28;20189;-69
2023/07/16 04:40:27;;;;;;;3.63;1.90;;;;;;;24.30;55.41;97536.72;5018380;28;20263;-69
2023/07/16 04:42:52;;;;;;;1.53;1.30;;;;;;;24.26;55.24;97547.09;5015658;28;20582;-69
2023/07/16 04:45:18;;;;;;;3.60;1.40;;;;;;;24.28;55.35;97550.38;5014546;28;20430;-68
2023/07/16 04:47:43;;;;;;;1.77;1.67;;;;;;;24.29;55.39;97549.31;5014623;28;20192;-69
2023/07/16 04:50:09;;;;;;;2.53;1.80;;;;;;;24.28;55.25;97545.00;5016322;28;20195;-69
2023/07/16 04:52:34;;;;;;;4.40;1.70;;;;;;;24.21;55.21;97538.94;5013943;28;20840;-68
2023/07/16 04:55:00;;;;;;;1.60;1.37;;;;;;;24.16;55.89;97549.53;5017060;28;20618;-69
2023/07/16 04:57:25;;;;;;;3.13;1.57;;;;;;;24.18;56.19;97534.06;5009133;28;20241;-68
2023/07/16 04:59:51;;;;;;;5.63;1.60;;;;;;;24.23;56.37;97542.19;5010093;28;20189;-69
2023/07/16 05:02:17;;;;;;;2.03;1.40;;;;;;;24.20;56.16;97548.00;5012273;28;20307;-69
2023/07/16 05:04:47;;;;;;;2.03;1.20;;;;;;;24.17;55.95;97548.50;5012838;28;20438;-69
2023/07/16 05:07:13;;;;;;;4.80;1.40;;;;;;;24.17;55.66;97561.88;5011426;28;20185;-70
2023/07/16 05:09:39;;;;;;;5.33;1.50;;;;;;;24.15;55.11;97564.78;5009316;28;20438;-69
2023/07/16 05:12:05;;;;;;;1.63;1.40;;;;;;;24.19;55.01;97565.94;5006327;28;20208;-69
2023/07/16 05:14:30;;;;;;;2.50;1.40;;;;;;;24.21;54.44;97555.00;5009281;28;20279;-69
2023/07/16 05:16:56;;;;;;;6.80;1.50;;;;;;;24.19;54.50;97557.13;5010553;28;20180;-69
2023/07/16 05:19:22;;;;;;;2.20;1.50;;;;;;;24.16;55.03;97557.56;5009743;28;20687;-70
2023/07/16 05:21:47;;;;;;;4.90;2.03;;;;;;;24.21;54.74;97566.53;5010684;28;20373;-69
2023/07/16 05:24:12;;;;;;;2.40;1.60;;;;;;;24.26;55.14;97557.00;5011715;28;20901;-69
2023/07/16 05:26:38;;;;;;;3.00;1.57;;;;;;;24.26;54.91;97565.03;5008708;28;20200;-70
2023/07/16 05:29:04;;;;;;;2.00;1.40;;;;;;;24.26;54.88;97560.47;5009547;28;20712;-69
2023/07/16 05:31:29;;;;;;;2.00;1.40;;;;;;;24.22;55.29;97545.91;5010738;28;20290;-69
2023/07/16 05:33:55;;;;;;;2.17;1.50;;;;;;;24.24;55.17;97559.91;5009202;28;20176;-72
2023/07/16 05:36:20;;;;;;;6.43;1.27;;;;;;;24.29;54.68;97562.69;5011056;28;20188;-70
2023/07/16 05:38:45;;;;;;;1.57;1.47;;;;;;;24.29;55.00;97577.94;5016011;28;20279;-69
2023/07/16 05:41:11;;;;;;;2.10;1.60;;;;;;;24.22;55.08;97570.00;5012426;28;20307;-69
2023/07/16 05:43:36;;;;;;;8.83;1.27;;;;;;;24.34;55.08;97560.13;5016606;28;20207;-70
2023/07/16 05:46:02;;;;;;;3.00;1.50;;;;;;;24.42;55.49;97572.34;5013704;28;20250;-69
2023/07/16 05:48:27;;;;;;;2.33;1.20;;;;;;;24.38;55.10;97593.44;5010381;28;20188;-70
2023/07/16 05:50:53;;;;;;;5.20;2.03;;;;;;;24.26;55.06;97595.28;5010582;28;20184;-69
2023/07/16 05:53:18;;;;;;;3.50;1.40;;;;;;;24.26;55.30;97597.97;5017039;28;20183;-70
2023/07/16 05:55:44;;;;;;;2.03;1.43;;;;;;;24.31;55.25;97586.56;5010257;28;20184;-68
2023/07/16 05:58:09;;;;;;;5.20;1.70;;;;;;;24.31;54.67;97582.03;5009431;28;20188;-69
2023/07/16 06:00:35;;;;;;;4.03;1.40;;;;;;;24.18;55.26;97579.56;5009049;28;20659;-69
2023/07/16 06:03:02;;;;;;;2.37;1.50;;;;;;;24.29;55.18;97570.75;5009587;28;20207;-70
2023/07/16 06:05:32;;;;;;;6.27;1.60;;;;;;;24.36;54.87;97576.78;5010028;28;20544;-69
2023/07/16 06:07:57;;;;;;;1.83;1.60;;;;;;;24.40;54.57;97574.44;5012555;28;20434;-69
2023/07/16 06:10:23;;;;;;;4.10;1.60;;;;;;;24.34;53.73;97568.16;5011327;28;20415;-69
2023/07/16 06:12:48;;;;;;;4.70;1.77;;;;;;;24.36;54.27;97579.47;5008299;28;20282;-70
2023/07/16 06:15:14;;;;;;;4.87;1.60;;;;;;;24.30;54.66;97598.31;5011126;28;20208;-70
2023/07/16 06:17:39;;;;;;;2.97;1.47;;;;;;;24.31;53.93;97605.31;5010776;28;20282;-70
2023/07/16 06:20:07;;;;;;;2.90;1.57;;;;;;;24.20;53.74;97604.22;5009463;28;20657;-70
2023/07/16 06:22:32;;;;;;;4.77;1.30;;;;;;;24.27;53.70;97596.09;5011646;28;20581;-70
2023/07/16 06:24:59;;;;;;;5.87;2.00;;;;;;;24.26;53.80;97589.94;5009753;28;20481;-69
2023/07/16 06:27:24;;;;;;;2.83;1.43;;;;;;;24.26;53.66;97587.25;5009247;28;20224;-70
2023/07/16 06:29:50;;;;;;;3.17;1.40;;;;;;;24.23;54.05;97599.25;5009702;28;20470;-68
2023/07/16 06:32:15;;;;;;;6.60;1.37;;;;;;;24.33;54.06;97595.19;5008800;28;20285;-68
2023/07/16 06:34:40;;;;;;;7.50;2.10;;;;;;;24.36;53.45;97590.19;5009209;28;20317;-71
2023/07/16 06:37:06;;;;;;;4.10;1.47;;;;;;;24.38;53.30;97588.09;5009239;28;20204;-70
2023/07/16 06:39:32;;;;;;;2.47;1.50;;;;;;;24.42;53.51;97587.63;5009156;28;20299;-70
2023/07/16 06:41:57;;;;;;;4.87;1.83;;;;;;;24.39;53.19;97589.72;5009003;28;20360;-70
2023/07/16 06:44:23;;;;;;;4.70;1.67;;;;;;;24.41;52.71;97581.44;5010306;28;20191;-71
2023/07/16 06:46:48;;;;;;;5.23;1.70;;;;;;;24.41;52.08;97588.66;5009110;28;20649;-70
2023/07/16 06:49:14;;;;;;;4.30;1.57;;;;;;;24.48;52.02;97594.72;5009775;28;20428;-69
2023/07/16 06:51:39;;;;;;;3.17;1.67;;;;;;;24.55;52.31;97584.72;5009125;28;20228;-72
2023/07/16 06:54:05;;;;;;;7.13;1.60;;;;;;;24.60;51.81;97587.50;5001778;28;20185;-71
2023/07/16 06:56:30;;;;;;;2.73;1.70;;;;;;;24.46;52.11;97583.41;5008470;28;20212;-70
2023/07/16 06:58:56;;;;;;;3.53;1.40;;;;;;;24.54;51.84;97588.44;5008895;28;20706;-71
2023/07/16 07:01:21;;;;;;;2.03;1.40;;;;;;;24.77;51.70;97608.25;5010350;28;20294;-70
2023/07/16 07:03:46;;;;;;;1.87;1.57;;;;;;;24.75;51.02;97607.66;5008160;28;20184;-70
2023/07/16 07:06:12;;;;;;;3.43;1.90;;;;;;;24.85;50.68;97605.22;5007953;28;20662;-72
2023/07/16 07:08:37;;;;;;;5.33;1.90;;;;;;;25.00;49.87;97602.88;5008616;28;20242;-70
2023/07/16 07:11:04;;;;;;;3.47;1.70;;;;;;;25.13;50.02;97585.72;5008520;28;20180;-71
2023/07/16 07:13:29;;;;;;;7.40;1.63;;;;;;;25.17;50.74;97582.53;5008205;28;20186;-70
2023/07/16 07:15:55;;;;;;;9.30;1.70;;;;;;;25.48;50.31;97585.84;5008810;28;20499;-70
2023/07/16 07:18:21;;;;;;;3.43;1.47;;;;;;;25.76;50.20;97587.69;5008392;28;20181;-70
2023/07/16 07:20:47;;;;;;;2.70;1.40;;;;;;;26.01;49.34;97586.50;5007795;28;20419;-70
2023/07/16 07:23:13;;;;;;;5.00;1.77;;;;;;;26.16;47.18;97577.91;5007519;28;20227;-71
2023/07/16 07:25:38;;;;;;;4.20;1.43;;;;;;;26.36;47.03;97580.94;5007829;28;20474;-69
2023/07/16 07:28:04;;;;;;;2.13;1.40;;;;;;;26.53;46.46;97588.97;5008573;28;20191;-70
2023/07/16 07:30:29;;;;;;;5.53;1.87;;;;;;;26.66;44.28;97587.00;5008684;28;20623;-71
2023/07/16 07:32:55;;;;;;;3.10;1.40;;;;;;;26.52;43.71;97594.59;5009339;28;20227;-71
2023/07/16 07:35:20;;;;;;;3.33;1.33;;;;;;;26.43;43.85;97602.25;5007610;28;20311;-71
2023/07/16 07:37:45;;;;;;;8.80;1.87;;;;;;;26.33;44.08;97618.22;5007229;28;20665;-72
2023/07/16 07:40:11;;;;;;;7.47;1.60;;;;;;;26.20;43.67;97614.81;5008348;28;20549;-70
2023/07/16 07:42:37;;;;;;;6.00;1.60;;;;;;;26.14;43.48;97612.28;5006850;28;20212;-70
2023/07/16 07:45:03;;;;;;;8.00;1.90;;;;;;;26.20;44.44;97612.13;5008518;28;20184;-71
2023/07/16 07:47:28;;;;;;;4.63;2.23;;;;;;;26.19;43.49;97602.44;5008309;28;20184;-70
2023/07/16 07:49:53;;;;;;;2.27;1.30;;;;;;;26.27;44.42;97600.38;5008161;28;20231;-70
2023/07/16 07:52:19;;;;;;;3.93;1.50;;;;;;;26.40;44.07;97608.13;5007828;28;20223;-70
2023/07/16 07:54:44;;;;;;;3.40;1.87;;;;;;;26.62;43.93;97610.88;5008105;28;20649;-70
2023/07/16 07:57:10;;;;;;;4.53;1.63;;;;;;;26.70;42.94;97615.00;5017347;28;20322;-70
2023/07/16 07:59:35;;;;;;;5.07;1.80;;;;;;;26.73;41.95;97611.81;5007814;28;20179;-71
2023/07/16 08:02:04;;;;;;;6.30;2.20;;;;;;;26.71;41.18;97627.41;5008128;28;20225;-70
2023/07/16 08:04:31;;;;;;;3.53;1.70;;;;;;;26.93;41.47;97607.81;5007187;28;20559;-71
2023/07/16 08:06:58;;;;;;;3.63;1.67;;;;;;;27.00;40.91;97619.19;5009114;28;20962;-69
2023/07/16 08:09:23;;;;;;;7.00;1.80;;;;;;;26.67;41.09;97621.69;5007438;28;20436;-70
2023/07/16 08:11:49;;;;;;;6.40;1.57;;;;;;;26.65;40.93;97623.78;5010174;28;20439;-69
2023/07/16 08:14:14;;;;;;;3.00;1.40;;;;;;;26.68;41.36;97622.50;5007962;28;20184;-69
2023/07/16 08:16:39;;;;;;;4.47;1.60;;;;;;;26.52;40.33;97632.22;5005874;28;20188;-70
2023/07/16 08:19:05;;;;;;;4.53;1.90;;;;;;;26.52;40.74;97629.53;5007773;28;20657;-70
2023/07/16 08:21:32;;;;;;;6.30;1.80;;;;;;;26.56;39.64;97611.03;5009362;28;20640;-70
2023/07/16 08:23:57;;;;;;;7.87;1.80;;;;;;;26.57;40.02;97621.53;5010150;28;20199;-72
2023/07/16 08:26:23;;;;;;;2.93;1.53;;;;;;;26.47;39.16;97616.81;5006214;28;20992;-69
2023/07/16 08:28:48;;;;;;;6.23;1.63;;;;;;;26.34;39.36;97609.91;5007825;28;20570;-69
2023/07/16 08:31:14;;;;;;;15.37;1.67;;;;;;;26.30;40.40;97597.22;5007731;28;20621;-69
2023/07/16 08:33:39;;;;;;;2.97;1.53;;;;;;;26.27;40.60;97595.00;5010855;28;20183;-70
2023/07/16 08:36:05;;;;;;;7.80;1.33;;;;;;;26.27;40.94;97595.84;5010756;28;20255;-70
2023/07/16 08:38:30;;;;;;;3.80;1.73;;;;;;;26.37;41.31;97608.59;5012297;28;20628;-71
2023/07/16 08:40:56;;;;;;;2.10;1.43;;;;;;;26.51;40.94;97611.78;5011387;28;20255;-71
2023/07/16 08:43:21;;;;;;;1.97;1.37;;;;;;;26.73;40.33;97602.94;5014569;28;20200;-69
2023/07/16 08:45:48;;;;;;;4.03;1.30;;;;;;;26.61;39.02;97616.47;5011584;28;20656;-70
2023/07/16 08:48:14;;;;;;;18.03;1.80;;;;;;;26.59;39.84;97614.03;5010518;28;20188;-70
2023/07/16 08:50:41;;;;;;;3.73;1.87;;;;;;;26.66;39.53;97606.59;4993071;28;20762;-70
2023/07/16 08:53:08;;;;;;;4.23;1.63;;;;;;;26.63;39.68;97620.56;5008755;28;20196;-70
2023/07/16 08:55:34;;;;;;;2.60;1.23;;;;;;;26.72;39.72;97615.56;5009816;28;20434;-69
2023/07/16 08:58:01;;;;;;;5.93;1.73;;;;;;;26.83;39.45;97609.31;5011257;28;20428;-70
2023/07/16 09:00:26;;;;;;;4.10;1.60;;;;;;;26.81;37.90;97608.75;5009243;28;20411;-71
2023/07/16 09:02:52;;;;;;;3.30;1.43;;;;;;;26.79;38.93;97621.63;5010779;28;20998;-70
2023/07/16 09:05:20;;;;;;;3.33;1.57;;;;;;;27.00;39.26;97619.19;5010361;28;20177;-72
2023/07/16 09:07:46;;;;;;;3.07;1.70;;;;;;;27.21;39.07;97624.84;5008069;28;20578;-69
2023/07/16 09:10:12;;;;;;;3.63;1.40;;;;;;;27.01;37.46;97620.81;5012736;28;20507;-70
2023/07/16 09:12:42;;;;;;;4.30;1.77;;;;;;;27.21;37.31;97609.50;5010093;28;20736;-70
2023/07/16 09:15:08;;;;;;;6.23;1.50;;;;;;;27.48;37.72;97607.94;5011012;28;20346;-70
2023/07/16 09:17:35;;;;;;;3.10;1.83;;;;;;;27.78;36.69;97612.03;5010775;28;20541;-69
2023/07/16 09:20:02;;;;;;;2.80;1.63;;;;;;;28.00;36.52;97607.41;5010424;28;20573;-72
2023/07/16 09:22:27;;;;;;;3.00;1.30;;;;;;;28.10;35.24;97614.78;5008580;28;20498;-71
2023/07/16 09:24:53;;;;;;;3.43;1.50;;;;;;;28.24;35.23;97604.38;5009551;28;20933;-71
2023/07/16 09:27:18;;;;;;;4.63;1.80;;;;;;;28.47;34.05;97613.19;5008351;28;20275;-71
2023/07/16 09:29:44;;;;;;;3.33;1.63;;;;;;;27.75;34.32;97614.16;5011316;28;20180;-70
2023/07/16 09:32:09;;;;;;;1.70;1.40;;;;;;;27.95;34.44;97615.44;5010319;28;20193;-72
2023/07/16 09:34:35;;;;;;;5.50;2.33;;;;;;;28.13;34.37;97610.75;5012865;28;20203;-71
2023/07/16 09:37:01;;;;;;;2.77;2.20;;;;;;;28.19;34.30;97602.47;5009969;28;20177;-71
2023/07/16 09:39:27;;;;;;;3.80;2.60;;;;;;;28.25;33.99;97600.63;5007536;28;20176;-70
2023/07/16 09:41:53;;;;;;;3.40;2.40;;;;;;;28.19;34.13;97604.34;5004738;28;20462;-69
2023/07/16 09:44:19;;;;;;;2.50;1.70;;;;;;;27.88;34.84;97612.13;5005719;28;21168;-70
2023/07/16 09:46:45;;;;;;;2.40;2.03;;;;;;;28.25;34.58;97608.69;5005156;28;20502;-69
2023/07/16 09:49:11;;;;;;;2.43;1.70;;;;;;;28.34;34.45;97604.47;5013122;28;20455;-70
2023/07/16 09:51:38;;;;;;;4.43;3.67;;;;;;;28.77;34.75;97601.00;5010807;28;20987;-70
2023/07/16 09:54:04;;;;;;;5.80;4.20;;;;;;;29.14;34.13;97604.69;5025117;28;20180;-69
2023/07/16 09:56:37;;;;;;;4.00;3.33;;;;;;;29.29;34.32;97599.34;5024027;28;20982;-70
2023/07/16 09:59:06;;;;;;;4.10;2.40;;;;;;;29.44;33.72;97593.22;5027234;28;20590;-72
2023/07/16 10:01:31;;;;;;;3.20;1.97;;;;;;;29.27;33.00;97601.50;5017148;28;20501;-70
2023/07/16 10:03:57;;;;;;;3.03;1.87;;;;;;;29.22;33.51;97607.69;5003475;28;20419;-70
2023/07/16 10:06:22;;;;;;;2.70;1.90;;;;;;;29.57;34.08;97599.97;5009331;28;20701;-73
2023/07/16 10:08:51;;;;;;;3.40;1.90;;;;;;;29.69;33.60;97611.34;5009226;28;20697;-71
2023/07/16 10:11:17;;;;;;;2.27;1.70;;;;;;;29.60;33.24;97606.75;5010577;28;20598;-71
2023/07/16 10:13:43;;;;;;;5.30;2.10;;;;;;;29.46;33.44;97606.44;5008882;28;20427;-71
2023/07/16 10:16:11;;;;;;;2.73;1.90;;;;;;;29.23;33.33;97603.94;5009714;28;20423;-71
2023/07/16 10:18:37;;;;;;;5.07;3.70;;;;;;;29.28;33.92;97598.53;5009196;28;20195;-72
2023/07/16 10:21:08;;;;;;;4.63;4.07;;;;;;;29.58;33.96;97607.00;5008849;28;20443;-69
2023/07/16 10:23:42;;;;;;;2.70;2.33;;;;;;;29.83;32.96;97606.25;5005319;28;20463;-70
2023/07/16 10:26:13;;;;;;;4.90;1.63;;;;;;;30.07;31.68;97594.13;5008056;28;20427;-71
2023/07/16 10:28:38;;;;;;;3.30;1.80;;;;;;;30.05;32.50;97602.50;5003033;28;20956;-70
2023/07/16 10:31:04;;;;;;;2.27;1.47;;;;;;;30.05;31.63;97597.13;5007963;28;20420;-71
2023/07/16 10:33:29;;;;;;;4.10;1.57;;;;;;;30.12;32.02;97594.94;5008235;28;20263;-70
2023/07/16 10:35:58;;;;;;;2.00;1.70;;;;;;;30.00;32.37;97594.41;5008666;28;20184;-70
2023/07/16 10:38:24;;;;;;;3.27;2.30;;;;;;;30.33;32.09;97589.53;4983707;28;20180;-72
2023/07/16 10:40:49;;;;;;;2.27;1.53;;;;;;;30.46;31.16;97583.56;5008629;28;20423;-72
2023/07/16 10:43:15;;;;;;;2.63;2.00;;;;;;;30.61;30.65;97579.25;5009232;28;20557;-71
2023/07/16 10:45:41;;;;;;;3.23;2.00;;;;;;;30.67;30.86;97585.47;5004588;28;20180;-72
2023/07/16 10:48:07;;;;;;;4.77;1.73;;;;;;;30.48;30.63;97577.88;5007795;28;20839;-71
2023/07/16 10:50:34;;;;;;;3.23;1.97;;;;;;;30.93;29.95;97586.19;5008509;28;21019;-72
2023/07/16 10:52:59;;;;;;;2.73;1.77;;;;;;;31.06;30.20;97580.19;5008612;28;20196;-70
2023/07/16 10:55:26;;;;;;;4.30;1.80;;;;;;;31.24;29.22;97573.38;5007764;28;20846;-71
2023/07/16 10:57:53;;;;;;;3.33;1.70;;;;;;;31.45;28.83;97580.56;5006820;28;20192;-74
2023/07/16 11:00:19;;;;;;;2.90;1.73;;;;;;;31.65;29.00;97585.84;5006772;28;20448;-72
2023/07/16 11:02:44;;;;;;;5.33;1.77;;;;;;;31.50;28.82;97580.56;5008257;28;20459;-71
2023/07/16 11:05:11;;;;;;;2.73;2.10;;;;;;;31.62;28.62;97572.06;5007548;28;20680;-70
2023/07/16 11:07:36;;;;;;;4.53;1.90;;;;;;;30.95;28.85;97584.03;5008521;28;20318;-70
2023/07/16 11:10:02;;;;;;;1.73;1.40;;;;;;;30.72;29.70;97585.44;5007850;28;21045;-71
2023/07/16 11:12:28;;;;;;;7.07;2.87;;;;;;;31.03;29.81;97582.63;5009655;28;20212;-70
2023/07/16 11:14:55;;;;;;;4.80;2.40;;;;;;;31.40;30.85;97581.41;5010839;28;20181;-71
2023/07/16 11:17:22;;;;;;;7.40;1.87;;;;;;;31.52;29.03;97579.19;5008344;28;20264;-71
2023/07/16 11:19:48;;;;;;;2.80;1.50;;;;;;;30.99;29.18;97579.69;5008178;28;20492;-71
2023/07/16 11:22:14;;;;;;;4.50;2.23;;;;;;;31.34;29.48;97563.56;5005046;28;20455;-71
2023/07/16 11:24:44;;;;;;;2.60;1.87;;;;;;;31.70;29.59;97572.31;5009873;28;20424;-70
2023/07/16 11:27:15;;;;;;;1.90;1.77;;;;;;;32.02;29.14;97570.19;5007838;28;20818;-72
2023/07/16 11:29:45;;;;;;;3.63;1.80;;;;;;;32.05;28.08;97574.22;5008165;28;20481;-73